sensor_id;sensor_type;location;lat;lon;timestamp;P1;durP1;ratioP1;P2;durP2;ratioP2
16189;SDS011;41754;51.498;7.540;2023-08-17T00:00:30;6.35;;;4.60;;
16189;SDS011;41754;51.498;7.540;2023-08-17T00:02:58;6.68;;;3.70;;
16189;SDS011;41754;51.498;7.540;2023-08-17T00:05:26;4.88;;;3.83;;
16189;SDS011;41754;51.498;7.540;2023-08-17T00:07:54;5.43;;;3.72;;
16189;SDS011;41754;51.498;7.540;2023-08-17T00:10:22;6.50;;;4.00;;
16189;SDS011;41754;51.498;7.540;2023-08-17T00:12:51;5.70;;;3.70;;
16189;SDS011;41754;51.498;7.540;2023-08-17T00:15:19;8.77;;;4.30;;
16189;SDS011;41754;51.498;7.540;2023-08-17T00:17:47;7.70;;;4.80;;
16189;SDS011;41754;51.498;7.540;2023-08-17T00:20:15;9.45;;;4.65;;
16189;SDS011;41754;51.498;7.540;2023-08-17T00:22:43;8.18;;;5.20;;
16189;SDS011;41754;51.498;7.540;2023-08-17T00:25:11;9.93;;;5.38;;
16189;SDS011;41754;51.498;7.540;2023-08-17T00:27:40;8.27;;;6.18;;
16189;SDS011;41754;51.498;7.540;2023-08-17T00:30:09;5.88;;;5.28;;
16189;SDS011;41754;51.498;7.540;2023-08-17T00:32:38;7.50;;;5.07;;
16189;SDS011;41754;51.498;7.540;2023-08-17T00:35:06;6.35;;;5.15;;
16189;SDS011;41754;51.498;7.540;2023-08-17T00:37:35;6.32;;;4.97;;
16189;SDS011;41754;51.498;7.540;2023-08-17T00:40:03;5.95;;;5.25;;
16189;SDS011;41754;51.498;7.540;2023-08-17T00:42:31;6.93;;;5.65;;
16189;SDS011;41754;51.498;7.540;2023-08-17T00:44:59;5.43;;;4.88;;
16189;SDS011;41754;51.498;7.540;2023-08-17T00:47:28;5.45;;;4.93;;
16189;SDS011;41754;51.498;7.540;2023-08-17T00:49:56;6.70;;;4.60;;
16189;SDS011;41754;51.498;7.540;2023-08-17T00:52:25;6.75;;;5.00;;
16189;SDS011;41754;51.498;7.540;2023-08-17T00:54:53;4.97;;;4.45;;
16189;SDS011;41754;51.498;7.540;2023-08-17T00:57:22;7.78;;;4.85;;
16189;SDS011;41754;51.498;7.540;2023-08-17T00:59:51;5.22;;;4.10;;
16189;SDS011;41754;51.498;7.540;2023-08-17T01:02:32;4.55;;;3.83;;
16189;SDS011;41754;51.498;7.540;2023-08-17T01:05:02;5.70;;;4.28;;
16189;SDS011;41754;51.498;7.540;2023-08-17T01:07:32;3.65;;;3.35;;
16189;SDS011;41754;51.498;7.540;2023-08-17T01:10:00;5.20;;;3.40;;
16189;SDS011;41754;51.498;7.540;2023-08-17T01:12:29;4.47;;;3.03;;
16189;SDS011;41754;51.498;7.540;2023-08-17T01:15:00;3.85;;;3.30;;
16189;SDS011;41754;51.498;7.540;2023-08-17T01:17:39;4.60;;;3.38;;
16189;SDS011;41754;51.498;7.540;2023-08-17T01:20:10;4.22;;;3.75;;
16189;SDS011;41754;51.498;7.540;2023-08-17T01:22:41;3.42;;;3.13;;
16189;SDS011;41754;51.498;7.540;2023-08-17T01:25:13;3.80;;;3.30;;
16189;SDS011;41754;51.498;7.540;2023-08-17T01:27:42;4.32;;;3.78;;
16189;SDS011;41754;51.498;7.540;2023-08-17T01:30:12;4.13;;;3.67;;
16189;SDS011;41754;51.498;7.540;2023-08-17T01:32:44;6.32;;;3.95;;
16189;SDS011;41754;51.498;7.540;2023-08-17T01:35:20;5.75;;;5.25;;
16189;SDS011;41754;51.498;7.540;2023-08-17T01:37:58;6.88;;;5.10;;
16189;SDS011;41754;51.498;7.540;2023-08-17T01:40:31;8.23;;;5.47;;
16189;SDS011;41754;51.498;7.540;2023-08-17T01:43:01;6.35;;;5.45;;
16189;SDS011;41754;51.498;7.540;2023-08-17T01:45:30;6.82;;;5.60;;
16189;SDS011;41754;51.498;7.540;2023-08-17T01:48:00;6.95;;;6.15;;
16189;SDS011;41754;51.498;7.540;2023-08-17T01:50:29;6.65;;;5.93;;
16189;SDS011;41754;51.498;7.540;2023-08-17T01:52:57;7.47;;;5.82;;
16189;SDS011;41754;51.498;7.540;2023-08-17T01:55:25;8.77;;;6.40;;
16189;SDS011;41754;51.498;7.540;2023-08-17T01:57:54;7.72;;;6.80;;
16189;SDS011;41754;51.498;7.540;2023-08-17T02:00:23;6.93;;;6.03;;
16189;SDS011;41754;51.498;7.540;2023-08-17T02:02:50;7.38;;;6.57;;
16189;SDS011;41754;51.498;7.540;2023-08-17T02:05:18;9.90;;;7.57;;
16189;SDS011;41754;51.498;7.540;2023-08-17T02:07:46;8.43;;;7.40;;
16189;SDS011;41754;51.498;7.540;2023-08-17T02:10:14;11.32;;;8.40;;
16189;SDS011;41754;51.498;7.540;2023-08-17T02:12:42;9.55;;;8.60;;
16189;SDS011;41754;51.498;7.540;2023-08-17T02:15:12;9.80;;;8.48;;
16189;SDS011;41754;51.498;7.540;2023-08-17T02:17:39;10.30;;;8.55;;
16189;SDS011;41754;51.498;7.540;2023-08-17T02:20:09;10.27;;;8.85;;
16189;SDS011;41754;51.498;7.540;2023-08-17T02:22:37;10.52;;;9.45;;
16189;SDS011;41754;51.498;7.540;2023-08-17T02:25:05;13.15;;;9.18;;
16189;SDS011;41754;51.498;7.540;2023-08-17T02:27:34;12.00;;;9.75;;
16189;SDS011;41754;51.498;7.540;2023-08-17T02:30:02;11.73;;;10.32;;
16189;SDS011;41754;51.498;7.540;2023-08-17T02:32:31;10.95;;;9.77;;
16189;SDS011;41754;51.498;7.540;2023-08-17T02:34:59;10.40;;;9.40;;
16189;SDS011;41754;51.498;7.540;2023-08-17T02:37:27;10.70;;;9.48;;
16189;SDS011;41754;51.498;7.540;2023-08-17T02:39:55;10.27;;;9.25;;
16189;SDS011;41754;51.498;7.540;2023-08-17T02:42:24;10.85;;;9.85;;
16189;SDS011;41754;51.498;7.540;2023-08-17T02:44:53;10.43;;;9.43;;
16189;SDS011;41754;51.498;7.540;2023-08-17T02:47:20;13.15;;;9.60;;
16189;SDS011;41754;51.498;7.540;2023-08-17T02:49:50;14.68;;;10.27;;
16189;SDS011;41754;51.498;7.540;2023-08-17T02:52:18;10.32;;;8.75;;
16189;SDS011;41754;51.498;7.540;2023-08-17T02:54:45;10.15;;;8.88;;
16189;SDS011;41754;51.498;7.540;2023-08-17T02:57:13;11.15;;;8.18;;
16189;SDS011;41754;51.498;7.540;2023-08-17T02:59:41;9.50;;;8.50;;
16189;SDS011;41754;51.498;7.540;2023-08-17T03:02:09;10.10;;;7.63;;
16189;SDS011;41754;51.498;7.540;2023-08-17T03:04:37;12.80;;;8.27;;
16189;SDS011;41754;51.498;7.540;2023-08-17T03:07:06;10.88;;;8.30;;
16189;SDS011;41754;51.498;7.540;2023-08-17T03:09:35;10.23;;;8.32;;
16189;SDS011;41754;51.498;7.540;2023-08-17T03:12:03;9.15;;;8.20;;
16189;SDS011;41754;51.498;7.540;2023-08-17T03:14:31;11.02;;;8.18;;
16189;SDS011;41754;51.498;7.540;2023-08-17T03:16:59;9.50;;;8.50;;
16189;SDS011;41754;51.498;7.540;2023-08-17T03:19:27;9.82;;;8.15;;
16189;SDS011;41754;51.498;7.540;2023-08-17T03:21:55;10.85;;;8.32;;
16189;SDS011;41754;51.498;7.540;2023-08-17T03:24:24;9.27;;;7.55;;
16189;SDS011;41754;51.498;7.540;2023-08-17T03:26:52;9.65;;;7.68;;
16189;SDS011;41754;51.498;7.540;2023-08-17T03:29:23;8.82;;;7.75;;
16189;SDS011;41754;51.498;7.540;2023-08-17T03:31:52;9.15;;;8.27;;
16189;SDS011;41754;51.498;7.540;2023-08-17T03:34:22;10.70;;;7.97;;
16189;SDS011;41754;51.498;7.540;2023-08-17T03:36:50;8.98;;;7.70;;
16189;SDS011;41754;51.498;7.540;2023-08-17T03:39:18;9.55;;;8.10;;
16189;SDS011;41754;51.498;7.540;2023-08-17T03:41:48;9.40;;;8.50;;
16189;SDS011;41754;51.498;7.540;2023-08-17T03:44:15;9.23;;;8.00;;
16189;SDS011;41754;51.498;7.540;2023-08-17T03:46:43;9.93;;;7.88;;
16189;SDS011;41754;51.498;7.540;2023-08-17T03:49:12;11.98;;;8.40;;
16189;SDS011;41754;51.498;7.540;2023-08-17T03:51:40;10.45;;;8.40;;
16189;SDS011;41754;51.498;7.540;2023-08-17T03:54:09;11.88;;;9.23;;
16189;SDS011;41754;51.498;7.540;2023-08-17T03:56:37;11.48;;;9.60;;
16189;SDS011;41754;51.498;7.540;2023-08-17T03:59:06;13.52;;;9.95;;
16189;SDS011;41754;51.498;7.540;2023-08-17T04:01:34;11.82;;;10.23;;
16189;SDS011;41754;51.498;7.540;2023-08-17T04:04:02;11.27;;;10.13;;
16189;SDS011;41754;51.498;7.540;2023-08-17T04:06:30;11.40;;;10.10;;
16189;SDS011;41754;51.498;7.540;2023-08-17T04:08:58;11.60;;;10.48;;
16189;SDS011;41754;51.498;7.540;2023-08-17T04:11:27;10.65;;;9.75;;
16189;SDS011;41754;51.498;7.540;2023-08-17T04:13:55;11.90;;;10.70;;
16189;SDS011;41754;51.498;7.540;2023-08-17T04:16:25;11.93;;;10.73;;
16189;SDS011;41754;51.498;7.540;2023-08-17T04:18:52;11.63;;;10.52;;
16189;SDS011;41754;51.498;7.540;2023-08-17T04:21:20;12.25;;;11.05;;
16189;SDS011;41754;51.498;7.540;2023-08-17T04:23:48;12.77;;;11.43;;
16189;SDS011;41754;51.498;7.540;2023-08-17T04:26:16;13.52;;;12.00;;
16189;SDS011;41754;51.498;7.540;2023-08-17T04:28:44;12.73;;;11.43;;
16189;SDS011;41754;51.498;7.540;2023-08-17T04:31:13;13.20;;;12.00;;
16189;SDS011;41754;51.498;7.540;2023-08-17T04:33:47;14.77;;;12.75;;
16189;SDS011;41754;51.498;7.540;2023-08-17T04:36:15;14.43;;;13.05;;
16189;SDS011;41754;51.498;7.540;2023-08-17T04:38:43;14.60;;;13.18;;
16189;SDS011;41754;51.498;7.540;2023-08-17T04:41:11;14.57;;;13.18;;
16189;SDS011;41754;51.498;7.540;2023-08-17T04:43:39;16.45;;;13.63;;
16189;SDS011;41754;51.498;7.540;2023-08-17T04:46:06;16.80;;;15.00;;
16189;SDS011;41754;51.498;7.540;2023-08-17T04:48:35;15.77;;;14.27;;
16189;SDS011;41754;51.498;7.540;2023-08-17T04:51:05;15.52;;;13.95;;
16189;SDS011;41754;51.498;7.540;2023-08-17T04:53:33;16.15;;;14.65;;
16189;SDS011;41754;51.498;7.540;2023-08-17T04:56:02;15.30;;;13.75;;
16189;SDS011;41754;51.498;7.540;2023-08-17T04:58:30;15.13;;;13.77;;
16189;SDS011;41754;51.498;7.540;2023-08-17T05:00:58;16.10;;;14.60;;
16189;SDS011;41754;51.498;7.540;2023-08-17T05:03:26;17.88;;;15.27;;
16189;SDS011;41754;51.498;7.540;2023-08-17T05:06:00;17.83;;;15.25;;
16189;SDS011;41754;51.498;7.540;2023-08-17T05:08:29;17.13;;;15.45;;
16189;SDS011;41754;51.498;7.540;2023-08-17T05:10:57;15.68;;;14.15;;
16189;SDS011;41754;51.498;7.540;2023-08-17T05:13:25;15.90;;;14.40;;
16189;SDS011;41754;51.498;7.540;2023-08-17T05:15:56;15.35;;;14.00;;
16189;SDS011;41754;51.498;7.540;2023-08-17T05:18:24;15.48;;;13.80;;
16189;SDS011;41754;51.498;7.540;2023-08-17T05:20:52;14.82;;;12.20;;
16189;SDS011;41754;51.498;7.540;2023-08-17T05:23:21;13.63;;;12.35;;
16189;SDS011;41754;51.498;7.540;2023-08-17T05:25:51;15.15;;;13.55;;
16189;SDS011;41754;51.498;7.540;2023-08-17T05:28:18;16.70;;;14.32;;
16189;SDS011;41754;51.498;7.540;2023-08-17T05:30:46;15.00;;;13.50;;
16189;SDS011;41754;51.498;7.540;2023-08-17T05:33:16;15.20;;;13.60;;
16189;SDS011;41754;51.498;7.540;2023-08-17T05:35:44;14.68;;;13.23;;
16189;SDS011;41754;51.498;7.540;2023-08-17T05:38:12;15.63;;;13.18;;
16189;SDS011;41754;51.498;7.540;2023-08-17T05:40:40;16.25;;;14.63;;
16189;SDS011;41754;51.498;7.540;2023-08-17T05:43:10;16.55;;;14.65;;
16189;SDS011;41754;51.498;7.540;2023-08-17T05:45:38;16.58;;;15.02;;
16189;SDS011;41754;51.498;7.540;2023-08-17T05:48:06;17.17;;;15.43;;
16189;SDS011;41754;51.498;7.540;2023-08-17T05:50:34;16.27;;;14.68;;
16189;SDS011;41754;51.498;7.540;2023-08-17T05:53:02;17.13;;;14.77;;
16189;SDS011;41754;51.498;7.540;2023-08-17T05:55:30;16.95;;;15.20;;
16189;SDS011;41754;51.498;7.540;2023-08-17T05:57:57;16.80;;;15.13;;
16189;SDS011;41754;51.498;7.540;2023-08-17T06:00:27;16.35;;;14.85;;
16189;SDS011;41754;51.498;7.540;2023-08-17T06:02:54;17.90;;;16.10;;
16189;SDS011;41754;51.498;7.540;2023-08-17T06:05:27;18.02;;;16.25;;
16189;SDS011;41754;51.498;7.540;2023-08-17T06:07:56;21.30;;;17.50;;
16189;SDS011;41754;51.498;7.540;2023-08-17T06:10:24;18.38;;;16.33;;
16189;SDS011;41754;51.498;7.540;2023-08-17T06:12:52;22.10;;;17.38;;
16189;SDS011;41754;51.498;7.540;2023-08-17T06:15:21;20.77;;;16.70;;
16189;SDS011;41754;51.498;7.540;2023-08-17T06:17:50;20.05;;;17.38;;
16189;SDS011;41754;51.498;7.540;2023-08-17T06:20:18;18.20;;;16.40;;
16189;SDS011;41754;51.498;7.540;2023-08-17T06:22:47;21.35;;;16.98;;
16189;SDS011;41754;51.498;7.540;2023-08-17T06:25:15;18.88;;;16.50;;
16189;SDS011;41754;51.498;7.540;2023-08-17T06:27:43;17.30;;;15.50;;
16189;SDS011;41754;51.498;7.540;2023-08-17T06:30:11;19.23;;;15.75;;
16189;SDS011;41754;51.498;7.540;2023-08-17T06:32:39;19.92;;;15.98;;
16189;SDS011;41754;51.498;7.540;2023-08-17T06:35:09;17.85;;;15.98;;
16189;SDS011;41754;51.498;7.540;2023-08-17T06:37:37;18.20;;;15.20;;
16189;SDS011;41754;51.498;7.540;2023-08-17T06:40:05;18.70;;;15.15;;
16189;SDS011;41754;51.498;7.540;2023-08-17T06:42:35;17.33;;;14.68;;
16189;SDS011;41754;51.498;7.540;2023-08-17T06:45:03;16.33;;;14.60;;
16189;SDS011;41754;51.498;7.540;2023-08-17T06:47:33;17.10;;;14.75;;
16189;SDS011;41754;51.498;7.540;2023-08-17T06:50:01;17.23;;;14.63;;
16189;SDS011;41754;51.498;7.540;2023-08-17T06:52:31;16.80;;;15.20;;
16189;SDS011;41754;51.498;7.540;2023-08-17T06:55:00;15.95;;;13.55;;
16189;SDS011;41754;51.498;7.540;2023-08-17T06:57:27;15.43;;;13.05;;
16189;SDS011;41754;51.498;7.540;2023-08-17T06:59:55;14.23;;;12.82;;
16189;SDS011;41754;51.498;7.540;2023-08-17T07:02:25;13.07;;;11.88;;
16189;SDS011;41754;51.498;7.540;2023-08-17T07:05:04;16.23;;;14.55;;
16189;SDS011;41754;51.498;7.540;2023-08-17T07:07:34;15.00;;;13.45;;
16189;SDS011;41754;51.498;7.540;2023-08-17T07:10:02;13.73;;;12.35;;
16189;SDS011;41754;51.498;7.540;2023-08-17T07:12:30;14.88;;;13.27;;
16189;SDS011;41754;51.498;7.540;2023-08-17T07:14:58;16.52;;;14.88;;
16189;SDS011;41754;51.498;7.540;2023-08-17T07:17:26;16.20;;;14.02;;
16189;SDS011;41754;51.498;7.540;2023-08-17T07:19:54;14.43;;;12.70;;
16189;SDS011;41754;51.498;7.540;2023-08-17T07:22:42;16.20;;;14.07;;
16189;SDS011;41754;51.498;7.540;2023-08-17T07:25:10;18.20;;;13.40;;
16189;SDS011;41754;51.498;7.540;2023-08-17T07:27:38;15.95;;;13.73;;
16189;SDS011;41754;51.498;7.540;2023-08-17T07:30:07;15.70;;;14.10;;
16189;SDS011;41754;51.498;7.540;2023-08-17T07:32:35;15.38;;;13.75;;
16189;SDS011;41754;51.498;7.540;2023-08-17T07:35:03;17.23;;;13.75;;
16189;SDS011;41754;51.498;7.540;2023-08-17T07:37:32;15.05;;;13.55;;
16189;SDS011;41754;51.498;7.540;2023-08-17T07:40:02;17.23;;;14.25;;
16189;SDS011;41754;51.498;7.540;2023-08-17T07:42:30;14.82;;;13.05;;
16189;SDS011;41754;51.498;7.540;2023-08-17T07:44:58;14.77;;;13.02;;
16189;SDS011;41754;51.498;7.540;2023-08-17T07:47:27;15.98;;;13.15;;
16189;SDS011;41754;51.498;7.540;2023-08-17T07:49:55;16.08;;;14.40;;
16189;SDS011;41754;51.498;7.540;2023-08-17T07:52:24;16.17;;;14.35;;
16189;SDS011;41754;51.498;7.540;2023-08-17T07:54:52;15.95;;;14.25;;
16189;SDS011;41754;51.498;7.540;2023-08-17T07:57:21;15.57;;;13.95;;
16189;SDS011;41754;51.498;7.540;2023-08-17T07:59:49;17.25;;;14.13;;
16189;SDS011;41754;51.498;7.540;2023-08-17T08:02:17;17.90;;;13.68;;
16189;SDS011;41754;51.498;7.540;2023-08-17T08:04:45;15.18;;;13.57;;
16189;SDS011;41754;51.498;7.540;2023-08-17T08:07:13;17.90;;;13.52;;
16189;SDS011;41754;51.498;7.540;2023-08-17T08:09:41;15.80;;;12.23;;
16189;SDS011;41754;51.498;7.540;2023-08-17T08:12:09;17.15;;;12.88;;
16189;SDS011;41754;51.498;7.540;2023-08-17T08:14:38;15.95;;;12.82;;
16189;SDS011;41754;51.498;7.540;2023-08-17T08:17:05;16.70;;;14.30;;
16189;SDS011;41754;51.498;7.540;2023-08-17T08:19:34;16.70;;;12.75;;
16189;SDS011;41754;51.498;7.540;2023-08-17T08:22:02;13.43;;;12.07;;
16189;SDS011;41754;51.498;7.540;2023-08-17T08:24:30;15.45;;;12.85;;
16189;SDS011;41754;51.498;7.540;2023-08-17T08:27:04;13.05;;;11.63;;
16189;SDS011;41754;51.498;7.540;2023-08-17T08:29:32;13.90;;;12.60;;
16189;SDS011;41754;51.498;7.540;2023-08-17T08:32:02;13.60;;;11.98;;
16189;SDS011;41754;51.498;7.540;2023-08-17T08:34:30;14.93;;;12.85;;
16189;SDS011;41754;51.498;7.540;2023-08-17T08:36:58;14.75;;;11.75;;
16189;SDS011;41754;51.498;7.540;2023-08-17T08:39:26;14.95;;;12.10;;
16189;SDS011;41754;51.498;7.540;2023-08-17T08:41:54;17.23;;;11.88;;
16189;SDS011;41754;51.498;7.540;2023-08-17T08:44:22;13.10;;;11.68;;
16189;SDS011;41754;51.498;7.540;2023-08-17T08:46:50;12.45;;;11.13;;
16189;SDS011;41754;51.498;7.540;2023-08-17T08:49:23;13.85;;;12.07;;
16189;SDS011;41754;51.498;7.540;2023-08-17T08:51:52;13.27;;;11.55;;
16189;SDS011;41754;51.498;7.540;2023-08-17T08:54:20;14.98;;;11.43;;
16189;SDS011;41754;51.498;7.540;2023-08-17T08:56:50;12.27;;;10.68;;
16189;SDS011;41754;51.498;7.540;2023-08-17T08:59:22;12.02;;;10.82;;
16189;SDS011;41754;51.498;7.540;2023-08-17T09:01:53;12.63;;;10.07;;
16189;SDS011;41754;51.498;7.540;2023-08-17T09:04:24;11.10;;;10.00;;
16189;SDS011;41754;51.498;7.540;2023-08-17T09:06:53;11.90;;;10.20;;
16189;SDS011;41754;51.498;7.540;2023-08-17T09:09:22;13.05;;;10.13;;
16189;SDS011;41754;51.498;7.540;2023-08-17T09:11:55;12.73;;;9.82;;
16189;SDS011;41754;51.498;7.540;2023-08-17T09:14:23;11.50;;;10.15;;
16189;SDS011;41754;51.498;7.540;2023-08-17T09:16:51;12.00;;;9.75;;
16189;SDS011;41754;51.498;7.540;2023-08-17T09:19:19;10.90;;;9.80;;
16189;SDS011;41754;51.498;7.540;2023-08-17T09:21:48;10.77;;;9.65;;
16189;SDS011;41754;51.498;7.540;2023-08-17T09:24:17;10.95;;;9.80;;
16189;SDS011;41754;51.498;7.540;2023-08-17T09:26:44;16.75;;;11.90;;
16189;SDS011;41754;51.498;7.540;2023-08-17T09:29:16;16.60;;;11.40;;
16189;SDS011;41754;51.498;7.540;2023-08-17T09:31:45;15.07;;;11.20;;
16189;SDS011;41754;51.498;7.540;2023-08-17T09:34:14;17.52;;;10.68;;
16189;SDS011;41754;51.498;7.540;2023-08-17T09:36:42;12.10;;;10.45;;
16189;SDS011;41754;51.498;7.540;2023-08-17T09:39:16;14.48;;;12.05;;
16189;SDS011;41754;51.498;7.540;2023-08-17T09:41:44;14.02;;;12.50;;
16189;SDS011;41754;51.498;7.540;2023-08-17T09:44:12;13.20;;;11.77;;
16189;SDS011;41754;51.498;7.540;2023-08-17T09:46:42;12.60;;;10.00;;
16189;SDS011;41754;51.498;7.540;2023-08-17T09:49:10;14.07;;;11.45;;
16189;SDS011;41754;51.498;7.540;2023-08-17T09:51:41;15.73;;;11.57;;
16189;SDS011;41754;51.498;7.540;2023-08-17T09:54:16;14.55;;;11.90;;
16189;SDS011;41754;51.498;7.540;2023-08-17T09:56:47;12.35;;;10.85;;
16189;SDS011;41754;51.498;7.540;2023-08-17T09:59:17;13.95;;;11.00;;
16189;SDS011;41754;51.498;7.540;2023-08-17T10:01:45;10.98;;;9.77;;
16189;SDS011;41754;51.498;7.540;2023-08-17T10:04:22;11.63;;;10.43;;
16189;SDS011;41754;51.498;7.540;2023-08-17T10:06:51;10.50;;;9.50;;
16189;SDS011;41754;51.498;7.540;2023-08-17T10:09:31;9.82;;;8.93;;
16189;SDS011;41754;51.498;7.540;2023-08-17T10:12:06;9.95;;;8.63;;
16189;SDS011;41754;51.498;7.540;2023-08-17T10:14:39;9.57;;;8.68;;
16189;SDS011;41754;51.498;7.540;2023-08-17T10:17:15;10.25;;;9.25;;
16189;SDS011;41754;51.498;7.540;2023-08-17T10:19:51;9.73;;;8.45;;
16189;SDS011;41754;51.498;7.540;2023-08-17T10:22:23;8.20;;;7.40;;
16189;SDS011;41754;51.498;7.540;2023-08-17T10:24:58;10.85;;;8.43;;
16189;SDS011;41754;51.498;7.540;2023-08-17T10:27:27;10.35;;;7.95;;
16189;SDS011;41754;51.498;7.540;2023-08-17T10:29:56;11.20;;;8.23;;
16189;SDS011;41754;51.498;7.540;2023-08-17T10:32:26;8.85;;;7.97;;
16189;SDS011;41754;51.498;7.540;2023-08-17T10:34:55;9.52;;;8.35;;
16189;SDS011;41754;51.498;7.540;2023-08-17T10:37:26;10.52;;;8.15;;
16189;SDS011;41754;51.498;7.540;2023-08-17T10:39:54;9.90;;;8.85;;
16189;SDS011;41754;51.498;7.540;2023-08-17T10:42:32;8.82;;;8.02;;
16189;SDS011;41754;51.498;7.540;2023-08-17T10:45:01;9.52;;;8.18;;
16189;SDS011;41754;51.498;7.540;2023-08-17T10:47:59;10.50;;;9.40;;
16189;SDS011;41754;51.498;7.540;2023-08-17T10:50:58;12.52;;;9.75;;
16189;SDS011;41754;51.498;7.540;2023-08-17T10:53:27;12.65;;;10.57;;
16189;SDS011;41754;51.498;7.540;2023-08-17T10:56:02;12.20;;;11.00;;
16189;SDS011;41754;51.498;7.540;2023-08-17T10:58:36;12.10;;;10.85;;
16189;SDS011;41754;51.498;7.540;2023-08-17T11:01:04;11.00;;;9.70;;
16189;SDS011;41754;51.498;7.540;2023-08-17T11:03:32;11.30;;;10.20;;
16189;SDS011;41754;51.498;7.540;2023-08-17T11:06:15;12.82;;;10.30;;
16189;SDS011;41754;51.498;7.540;2023-08-17T11:08:51;11.80;;;10.27;;
16189;SDS011;41754;51.498;7.540;2023-08-17T11:11:22;12.55;;;11.20;;
16189;SDS011;41754;51.498;7.540;2023-08-17T11:13:52;13.65;;;12.30;;
16189;SDS011;41754;51.498;7.540;2023-08-17T11:16:23;15.77;;;13.75;;
16189;SDS011;41754;51.498;7.540;2023-08-17T11:18:51;17.63;;;14.25;;
16189;SDS011;41754;51.498;7.540;2023-08-17T11:21:22;19.65;;;15.10;;
16189;SDS011;41754;51.498;7.540;2023-08-17T11:23:49;12.55;;;11.30;;
16189;SDS011;41754;51.498;7.540;2023-08-17T11:26:17;12.80;;;11.32;;
16189;SDS011;41754;51.498;7.540;2023-08-17T11:28:46;12.48;;;11.00;;
16189;SDS011;41754;51.498;7.540;2023-08-17T11:31:15;11.32;;;10.25;;
16189;SDS011;41754;51.498;7.540;2023-08-17T11:33:43;12.75;;;11.10;;
16189;SDS011;41754;51.498;7.540;2023-08-17T11:36:13;11.82;;;10.73;;
16189;SDS011;41754;51.498;7.540;2023-08-17T11:38:42;12.07;;;10.73;;
16189;SDS011;41754;51.498;7.540;2023-08-17T11:41:10;10.63;;;9.52;;
16189;SDS011;41754;51.498;7.540;2023-08-17T11:43:44;10.02;;;9.05;;
16189;SDS011;41754;51.498;7.540;2023-08-17T11:46:13;10.30;;;8.77;;
16189;SDS011;41754;51.498;7.540;2023-08-17T11:48:43;10.48;;;9.27;;
16189;SDS011;41754;51.498;7.540;2023-08-17T11:51:11;9.48;;;8.50;;
16189;SDS011;41754;51.498;7.540;2023-08-17T11:53:39;9.18;;;8.38;;
16189;SDS011;41754;51.498;7.540;2023-08-17T11:56:07;32.90;;;14.80;;
16189;SDS011;41754;51.498;7.540;2023-08-17T11:58:40;12.82;;;9.00;;
16189;SDS011;41754;51.498;7.540;2023-08-17T12:01:09;10.55;;;8.10;;
16189;SDS011;41754;51.498;7.540;2023-08-17T12:03:38;7.57;;;6.88;;
16189;SDS011;41754;51.498;7.540;2023-08-17T12:06:09;8.57;;;7.85;;
16189;SDS011;41754;51.498;7.540;2023-08-17T12:08:41;9.00;;;8.18;;
16189;SDS011;41754;51.498;7.540;2023-08-17T12:11:13;15.10;;;10.93;;
16189;SDS011;41754;51.498;7.540;2023-08-17T12:13:41;11.00;;;9.50;;
16189;SDS011;41754;51.498;7.540;2023-08-17T12:16:14;10.55;;;9.65;;
16189;SDS011;41754;51.498;7.540;2023-08-17T12:18:43;11.55;;;10.13;;
16189;SDS011;41754;51.498;7.540;2023-08-17T12:21:13;11.30;;;10.30;;
16189;SDS011;41754;51.498;7.540;2023-08-17T12:23:41;11.10;;;10.10;;
16189;SDS011;41754;51.498;7.540;2023-08-17T12:26:09;11.90;;;9.82;;
16189;SDS011;41754;51.498;7.540;2023-08-17T12:28:39;10.60;;;9.50;;
16189;SDS011;41754;51.498;7.540;2023-08-17T12:31:07;9.65;;;8.70;;
16189;SDS011;41754;51.498;7.540;2023-08-17T12:33:35;8.77;;;7.97;;
16189;SDS011;41754;51.498;7.540;2023-08-17T12:36:03;8.68;;;7.88;;
16189;SDS011;41754;51.498;7.540;2023-08-17T12:38:34;9.05;;;8.15;;
16189;SDS011;41754;51.498;7.540;2023-08-17T12:41:04;10.65;;;9.65;;
16189;SDS011;41754;51.498;7.540;2023-08-17T12:43:32;13.68;;;10.93;;
16189;SDS011;41754;51.498;7.540;2023-08-17T12:46:00;11.40;;;10.30;;
16189;SDS011;41754;51.498;7.540;2023-08-17T12:48:28;12.55;;;11.25;;
16189;SDS011;41754;51.498;7.540;2023-08-17T12:51:01;14.27;;;11.85;;
16189;SDS011;41754;51.498;7.540;2023-08-17T12:53:30;13.65;;;12.27;;
16189;SDS011;41754;51.498;7.540;2023-08-17T12:56:00;16.52;;;13.88;;
16189;SDS011;41754;51.498;7.540;2023-08-17T12:58:28;14.32;;;12.57;;
16189;SDS011;41754;51.498;7.540;2023-08-17T13:00:55;14.18;;;12.90;;
16189;SDS011;41754;51.498;7.540;2023-08-17T13:03:23;16.20;;;13.93;;
16189;SDS011;41754;51.498;7.540;2023-08-17T13:05:51;14.93;;;13.52;;
16189;SDS011;41754;51.498;7.540;2023-08-17T13:08:19;14.57;;;12.40;;
16189;SDS011;41754;51.498;7.540;2023-08-17T13:10:47;14.45;;;12.73;;
16189;SDS011;41754;51.498;7.540;2023-08-17T13:13:16;13.13;;;11.82;;
16189;SDS011;41754;51.498;7.540;2023-08-17T13:15:44;13.07;;;11.77;;
16189;SDS011;41754;51.498;7.540;2023-08-17T13:18:12;13.27;;;11.95;;
16189;SDS011;41754;51.498;7.540;2023-08-17T13:20:40;12.77;;;10.95;;
16189;SDS011;41754;51.498;7.540;2023-08-17T13:23:08;11.55;;;10.43;;
16189;SDS011;41754;51.498;7.540;2023-08-17T13:25:36;12.10;;;10.90;;
16189;SDS011;41754;51.498;7.540;2023-08-17T13:28:04;10.52;;;9.52;;
16189;SDS011;41754;51.498;7.540;2023-08-17T13:30:33;9.60;;;8.55;;
16189;SDS011;41754;51.498;7.540;2023-08-17T13:33:01;10.20;;;9.30;;
16189;SDS011;41754;51.498;7.540;2023-08-17T13:35:29;10.77;;;9.75;;
16189;SDS011;41754;51.498;7.540;2023-08-17T13:37:57;11.18;;;9.48;;
16189;SDS011;41754;51.498;7.540;2023-08-17T13:40:25;10.55;;;9.65;;
16189;SDS011;41754;51.498;7.540;2023-08-17T13:42:53;10.40;;;9.40;;
16189;SDS011;41754;51.498;7.540;2023-08-17T13:45:20;9.98;;;7.95;;
16189;SDS011;41754;51.498;7.540;2023-08-17T13:47:50;11.07;;;9.35;;
16189;SDS011;41754;51.498;7.540;2023-08-17T13:50:18;9.60;;;8.68;;
16189;SDS011;41754;51.498;7.540;2023-08-17T13:52:45;9.93;;;8.25;;
16189;SDS011;41754;51.498;7.540;2023-08-17T13:55:14;9.00;;;8.20;;
16189;SDS011;41754;51.498;7.540;2023-08-17T13:57:42;9.57;;;8.75;;
16189;SDS011;41754;51.498;7.540;2023-08-17T14:00:10;10.65;;;9.65;;
16189;SDS011;41754;51.498;7.540;2023-08-17T14:02:39;11.63;;;10.60;;
16189;SDS011;41754;51.498;7.540;2023-08-17T14:05:08;14.40;;;11.75;;
16189;SDS011;41754;51.498;7.540;2023-08-17T14:07:36;14.80;;;13.13;;
16189;SDS011;41754;51.498;7.540;2023-08-17T14:10:04;13.15;;;11.77;;
16189;SDS011;41754;51.498;7.540;2023-08-17T14:12:39;12.15;;;10.88;;
16189;SDS011;41754;51.498;7.540;2023-08-17T14:15:07;16.02;;;11.05;;
16189;SDS011;41754;51.498;7.540;2023-08-17T14:17:35;13.98;;;12.32;;
16189;SDS011;41754;51.498;7.540;2023-08-17T14:20:03;12.15;;;11.05;;
16189;SDS011;41754;51.498;7.540;2023-08-17T14:22:33;12.70;;;10.77;;
16189;SDS011;41754;51.498;7.540;2023-08-17T14:25:01;12.45;;;11.07;;
16189;SDS011;41754;51.498;7.540;2023-08-17T14:27:29;12.07;;;10.90;;
16189;SDS011;41754;51.498;7.540;2023-08-17T14:29:57;11.50;;;10.30;;
16189;SDS011;41754;51.498;7.540;2023-08-17T14:32:27;11.32;;;10.27;;
16189;SDS011;41754;51.498;7.540;2023-08-17T14:35:00;11.05;;;10.15;;
16189;SDS011;41754;51.498;7.540;2023-08-17T14:37:28;11.10;;;10.02;;
16189;SDS011;41754;51.498;7.540;2023-08-17T14:39:58;10.75;;;9.73;;
16189;SDS011;41754;51.498;7.540;2023-08-17T14:42:26;11.05;;;9.57;;